sensor_id;sensor_type;location;lat;lon;timestamp;P1;durP1;ratioP1;P2;durP2;ratioP2
27833;SDS011;15200;50.570;7.244;2022-07-23T00:00:08;10.35;;;8.63;;
27833;SDS011;15200;50.570;7.244;2022-07-23T00:02:35;11.97;;;8.75;;
27833;SDS011;15200;50.570;7.244;2022-07-23T00:05:02;10.75;;;8.30;;
27833;SDS011;15200;50.570;7.244;2022-07-23T00:07:30;10.05;;;8.43;;
27833;SDS011;15200;50.570;7.244;2022-07-23T00:09:57;12.78;;;9.15;;
27833;SDS011;15200;50.570;7.244;2022-07-23T00:12:24;11.60;;;8.75;;
27833;SDS011;15200;50.570;7.244;2022-07-23T00:14:52;12.82;;;9.05;;
27833;SDS011;15200;50.570;7.244;2022-07-23T00:17:19;13.75;;;9.80;;
27833;SDS011;15200;50.570;7.244;2022-07-23T00:19:46;12.23;;;9.20;;
27833;SDS011;15200;50.570;7.244;2022-07-23T00:22:14;11.93;;;9.23;;
27833;SDS011;15200;50.570;7.244;2022-07-23T00:24:41;11.78;;;9.38;;
27833;SDS011;15200;50.570;7.244;2022-07-23T00:27:08;11.75;;;9.03;;
27833;SDS011;15200;50.570;7.244;2022-07-23T00:29:36;12.00;;;9.28;;
27833;SDS011;15200;50.570;7.244;2022-07-23T00:32:03;12.00;;;9.43;;
27833;SDS011;15200;50.570;7.244;2022-07-23T00:34:30;13.18;;;9.20;;
27833;SDS011;15200;50.570;7.244;2022-07-23T00:36:58;13.65;;;10.05;;
27833;SDS011;15200;50.570;7.244;2022-07-23T00:39:25;11.12;;;9.03;;
27833;SDS011;15200;50.570;7.244;2022-07-23T00:41:52;14.98;;;10.25;;
27833;SDS011;15200;50.570;7.244;2022-07-23T00:44:21;11.12;;;9.80;;
27833;SDS011;15200;50.570;7.244;2022-07-23T00:46:50;12.60;;;11.22;;
27833;SDS011;15200;50.570;7.244;2022-07-23T00:49:24;12.53;;;9.70;;
27833;SDS011;15200;50.570;7.244;2022-07-23T00:51:48;14.50;;;10.08;;
27833;SDS011;15200;50.570;7.244;2022-07-23T00:54:16;12.78;;;9.93;;
27833;SDS011;15200;50.570;7.244;2022-07-23T00:56:44;12.65;;;10.03;;
27833;SDS011;15200;50.570;7.244;2022-07-23T00:59:12;12.88;;;10.03;;
27833;SDS011;15200;50.570;7.244;2022-07-23T01:01:40;13.13;;;10.75;;
27833;SDS011;15200;50.570;7.244;2022-07-23T01:04:07;14.25;;;10.35;;
27833;SDS011;15200;50.570;7.244;2022-07-23T01:06:35;16.05;;;11.85;;
27833;SDS011;15200;50.570;7.244;2022-07-23T01:09:06;14.87;;;11.08;;
27833;SDS011;15200;50.570;7.244;2022-07-23T01:11:34;15.75;;;10.53;;
27833;SDS011;15200;50.570;7.244;2022-07-23T01:14:13;14.55;;;10.20;;
27833;SDS011;15200;50.570;7.244;2022-07-23T01:16:36;13.93;;;10.10;;
27833;SDS011;15200;50.570;7.244;2022-07-23T01:19:04;14.93;;;11.00;;
27833;SDS011;15200;50.570;7.244;2022-07-23T01:21:34;14.35;;;10.35;;
27833;SDS011;15200;50.570;7.244;2022-07-23T01:24:01;13.38;;;10.80;;
27833;SDS011;15200;50.570;7.244;2022-07-23T01:26:28;13.50;;;10.43;;
27833;SDS011;15200;50.570;7.244;2022-07-23T01:28:56;14.38;;;10.68;;
27833;SDS011;15200;50.570;7.244;2022-07-23T01:31:24;13.85;;;10.25;;
27833;SDS011;15200;50.570;7.244;2022-07-23T01:33:51;13.88;;;11.22;;
27833;SDS011;15200;50.570;7.244;2022-07-23T01:36:18;12.37;;;10.28;;
27833;SDS011;15200;50.570;7.244;2022-07-23T01:38:46;12.58;;;10.48;;
27833;SDS011;15200;50.570;7.244;2022-07-23T01:41:13;11.68;;;9.65;;
27833;SDS011;15200;50.570;7.244;2022-07-23T01:43:41;16.60;;;11.40;;
27833;SDS011;15200;50.570;7.244;2022-07-23T01:46:08;18.05;;;11.78;;
27833;SDS011;15200;50.570;7.244;2022-07-23T01:48:35;14.58;;;10.68;;
27833;SDS011;15200;50.570;7.244;2022-07-23T01:51:03;15.55;;;11.22;;
27833;SDS011;15200;50.570;7.244;2022-07-23T01:53:32;14.18;;;10.60;;
27833;SDS011;15200;50.570;7.244;2022-07-23T01:55:59;16.10;;;11.45;;
27833;SDS011;15200;50.570;7.244;2022-07-23T01:58:27;17.32;;;11.35;;
27833;SDS011;15200;50.570;7.244;2022-07-23T02:00:54;18.60;;;11.57;;
27833;SDS011;15200;50.570;7.244;2022-07-23T02:03:22;13.13;;;10.90;;
27833;SDS011;15200;50.570;7.244;2022-07-23T02:05:49;19.25;;;11.57;;
27833;SDS011;15200;50.570;7.244;2022-07-23T02:08:17;15.03;;;12.07;;
27833;SDS011;15200;50.570;7.244;2022-07-23T02:10:44;17.48;;;12.58;;
27833;SDS011;15200;50.570;7.244;2022-07-23T02:13:12;18.82;;;12.03;;
27833;SDS011;15200;50.570;7.244;2022-07-23T02:15:39;14.78;;;11.73;;
27833;SDS011;15200;50.570;7.244;2022-07-23T02:18:06;19.73;;;12.53;;
27833;SDS011;15200;50.570;7.244;2022-07-23T02:20:34;14.75;;;11.40;;
27833;SDS011;15200;50.570;7.244;2022-07-23T02:23:03;18.90;;;13.22;;
27833;SDS011;15200;50.570;7.244;2022-07-23T02:25:30;17.25;;;13.08;;
27833;SDS011;15200;50.570;7.244;2022-07-23T02:27:58;18.07;;;13.20;;
27833;SDS011;15200;50.570;7.244;2022-07-23T02:30:25;16.80;;;12.43;;
27833;SDS011;15200;50.570;7.244;2022-07-23T02:32:53;21.57;;;12.35;;
27833;SDS011;15200;50.570;7.244;2022-07-23T02:35:20;16.40;;;12.18;;
27833;SDS011;15200;50.570;7.244;2022-07-23T02:37:47;13.85;;;11.48;;
27833;SDS011;15200;50.570;7.244;2022-07-23T02:40:15;17.62;;;13.22;;
27833;SDS011;15200;50.570;7.244;2022-07-23T02:42:42;18.77;;;12.28;;
27833;SDS011;15200;50.570;7.244;2022-07-23T02:45:09;17.77;;;12.37;;
27833;SDS011;15200;50.570;7.244;2022-07-23T02:47:37;16.12;;;12.63;;
27833;SDS011;15200;50.570;7.244;2022-07-23T02:50:04;20.37;;;14.00;;
27833;SDS011;15200;50.570;7.244;2022-07-23T02:52:33;19.20;;;13.18;;
27833;SDS011;15200;50.570;7.244;2022-07-23T02:55:00;18.10;;;14.03;;
27833;SDS011;15200;50.570;7.244;2022-07-23T02:57:28;17.05;;;13.38;;
27833;SDS011;15200;50.570;7.244;2022-07-23T02:59:55;18.12;;;14.18;;
27833;SDS011;15200;50.570;7.244;2022-07-23T03:02:22;19.85;;;14.05;;
27833;SDS011;15200;50.570;7.244;2022-07-23T03:04:49;20.02;;;14.00;;
27833;SDS011;15200;50.570;7.244;2022-07-23T03:07:17;18.85;;;13.75;;
27833;SDS011;15200;50.570;7.244;2022-07-23T03:09:45;19.07;;;14.45;;
27833;SDS011;15200;50.570;7.244;2022-07-23T03:12:12;19.45;;;13.93;;
27833;SDS011;15200;50.570;7.244;2022-07-23T03:14:39;21.20;;;13.75;;
27833;SDS011;15200;50.570;7.244;2022-07-23T03:17:08;20.43;;;14.70;;
27833;SDS011;15200;50.570;7.244;2022-07-23T03:19:36;18.05;;;13.93;;
27833;SDS011;15200;50.570;7.244;2022-07-23T03:22:04;17.85;;;14.68;;
27833;SDS011;15200;50.570;7.244;2022-07-23T03:24:32;18.90;;;14.38;;
27833;SDS011;15200;50.570;7.244;2022-07-23T03:27:17;18.25;;;13.70;;
27833;SDS011;15200;50.570;7.244;2022-07-23T03:29:44;19.52;;;15.00;;
27833;SDS011;15200;50.570;7.244;2022-07-23T03:32:11;19.62;;;14.53;;
27833;SDS011;15200;50.570;7.244;2022-07-23T03:34:38;22.10;;;15.98;;
27833;SDS011;15200;50.570;7.244;2022-07-23T03:37:06;18.98;;;14.95;;
27833;SDS011;15200;50.570;7.244;2022-07-23T03:39:33;22.10;;;15.30;;
27833;SDS011;15200;50.570;7.244;2022-07-23T03:42:00;20.65;;;14.75;;
27833;SDS011;15200;50.570;7.244;2022-07-23T03:44:28;16.45;;;13.10;;
27833;SDS011;15200;50.570;7.244;2022-07-23T03:46:55;20.70;;;14.75;;
27833;SDS011;15200;50.570;7.244;2022-07-23T03:49:22;22.50;;;15.78;;
27833;SDS011;15200;50.570;7.244;2022-07-23T03:51:50;21.00;;;16.15;;
27833;SDS011;15200;50.570;7.244;2022-07-23T03:54:17;21.95;;;15.35;;
27833;SDS011;15200;50.570;7.244;2022-07-23T03:56:44;19.92;;;15.15;;
27833;SDS011;15200;50.570;7.244;2022-07-23T03:59:12;22.30;;;16.00;;
27833;SDS011;15200;50.570;7.244;2022-07-23T04:01:39;23.57;;;16.37;;
27833;SDS011;15200;50.570;7.244;2022-07-23T04:04:06;21.40;;;15.40;;
27833;SDS011;15200;50.570;7.244;2022-07-23T04:06:35;21.25;;;14.98;;
27833;SDS011;15200;50.570;7.244;2022-07-23T04:09:02;21.77;;;15.18;;
27833;SDS011;15200;50.570;7.244;2022-07-23T04:11:30;20.35;;;15.13;;
27833;SDS011;15200;50.570;7.244;2022-07-23T04:13:57;20.95;;;15.28;;
27833;SDS011;15200;50.570;7.244;2022-07-23T04:16:25;20.48;;;15.68;;
27833;SDS011;15200;50.570;7.244;2022-07-23T04:18:52;29.10;;;17.00;;
27833;SDS011;15200;50.570;7.244;2022-07-23T04:21:19;22.20;;;15.75;;
27833;SDS011;15200;50.570;7.244;2022-07-23T04:23:47;20.25;;;14.98;;
27833;SDS011;15200;50.570;7.244;2022-07-23T04:26:14;20.85;;;14.78;;
27833;SDS011;15200;50.570;7.244;2022-07-23T04:28:42;21.15;;;14.95;;
27833;SDS011;15200;50.570;7.244;2022-07-23T04:31:10;21.55;;;15.60;;
27833;SDS011;15200;50.570;7.244;2022-07-23T04:33:37;18.98;;;15.15;;
27833;SDS011;15200;50.570;7.244;2022-07-23T04:36:05;21.25;;;14.93;;
27833;SDS011;15200;50.570;7.244;2022-07-23T04:38:32;22.17;;;15.45;;
27833;SDS011;15200;50.570;7.244;2022-07-23T04:40:59;21.10;;;15.50;;
27833;SDS011;15200;50.570;7.244;2022-07-23T04:43:27;23.47;;;16.25;;
27833;SDS011;15200;50.570;7.244;2022-07-23T04:45:54;20.37;;;14.10;;
27833;SDS011;15200;50.570;7.244;2022-07-23T04:48:22;25.00;;;15.88;;
27833;SDS011;15200;50.570;7.244;2022-07-23T04:50:49;20.20;;;14.93;;
27833;SDS011;15200;50.570;7.244;2022-07-23T04:53:16;19.65;;;14.65;;
27833;SDS011;15200;50.570;7.244;2022-07-23T04:55:45;19.62;;;15.65;;
27833;SDS011;15200;50.570;7.244;2022-07-23T04:58:12;19.65;;;15.32;;
27833;SDS011;15200;50.570;7.244;2022-07-23T05:00:39;21.68;;;15.20;;
27833;SDS011;15200;50.570;7.244;2022-07-23T05:03:07;22.60;;;15.32;;
27833;SDS011;15200;50.570;7.244;2022-07-23T05:05:34;22.55;;;16.07;;
27833;SDS011;15200;50.570;7.244;2022-07-23T05:08:02;21.40;;;15.68;;
27833;SDS011;15200;50.570;7.244;2022-07-23T05:10:29;22.40;;;15.00;;
27833;SDS011;15200;50.570;7.244;2022-07-23T05:12:57;22.87;;;14.68;;
27833;SDS011;15200;50.570;7.244;2022-07-23T05:15:24;20.15;;;15.03;;
27833;SDS011;15200;50.570;7.244;2022-07-23T05:17:51;20.60;;;14.73;;
27833;SDS011;15200;50.570;7.244;2022-07-23T05:20:19;18.50;;;14.73;;
27833;SDS011;15200;50.570;7.244;2022-07-23T05:22:46;20.82;;;14.47;;
27833;SDS011;15200;50.570;7.244;2022-07-23T05:25:13;21.87;;;14.13;;
27833;SDS011;15200;50.570;7.244;2022-07-23T05:27:41;19.82;;;14.78;;
27833;SDS011;15200;50.570;7.244;2022-07-23T05:30:08;21.40;;;14.60;;
27833;SDS011;15200;50.570;7.244;2022-07-23T05:32:36;25.05;;;14.93;;
27833;SDS011;15200;50.570;7.244;2022-07-23T05:35:06;20.72;;;15.23;;
27833;SDS011;15200;50.570;7.244;2022-07-23T05:37:34;18.60;;;13.25;;
27833;SDS011;15200;50.570;7.244;2022-07-23T05:40:06;16.85;;;13.35;;
27833;SDS011;15200;50.570;7.244;2022-07-23T05:42:30;17.50;;;12.37;;
27833;SDS011;15200;50.570;7.244;2022-07-23T05:44:57;16.10;;;12.65;;
27833;SDS011;15200;50.570;7.244;2022-07-23T05:47:24;19.75;;;13.05;;
27833;SDS011;15200;50.570;7.244;2022-07-23T05:49:52;22.42;;;13.68;;
27833;SDS011;15200;50.570;7.244;2022-07-23T05:52:19;17.48;;;11.85;;
27833;SDS011;15200;50.570;7.244;2022-07-23T05:54:46;17.92;;;11.70;;
27833;SDS011;15200;50.570;7.244;2022-07-23T05:57:14;18.40;;;12.68;;
27833;SDS011;15200;50.570;7.244;2022-07-23T05:59:41;17.87;;;11.55;;
27833;SDS011;15200;50.570;7.244;2022-07-23T06:02:08;16.40;;;10.95;;
27833;SDS011;15200;50.570;7.244;2022-07-23T06:04:36;16.70;;;10.85;;
27833;SDS011;15200;50.570;7.244;2022-07-23T06:07:03;20.85;;;10.70;;
27833;SDS011;15200;50.570;7.244;2022-07-23T06:09:30;18.00;;;11.75;;
27833;SDS011;15200;50.570;7.244;2022-07-23T06:11:57;17.32;;;11.90;;
27833;SDS011;15200;50.570;7.244;2022-07-23T06:14:25;19.17;;;11.12;;
27833;SDS011;15200;50.570;7.244;2022-07-23T06:16:52;18.40;;;11.60;;
27833;SDS011;15200;50.570;7.244;2022-07-23T06:19:20;15.35;;;11.40;;
27833;SDS011;15200;50.570;7.244;2022-07-23T06:21:47;14.03;;;10.53;;
27833;SDS011;15200;50.570;7.244;2022-07-23T06:24:14;16.40;;;11.45;;
27833;SDS011;15200;50.570;7.244;2022-07-23T06:26:42;18.25;;;10.72;;
27833;SDS011;15200;50.570;7.244;2022-07-23T06:29:09;18.07;;;11.83;;
27833;SDS011;15200;50.570;7.244;2022-07-23T06:31:36;21.30;;;10.50;;
27833;SDS011;15200;50.570;7.244;2022-07-23T06:34:04;12.30;;;10.00;;
27833;SDS011;15200;50.570;7.244;2022-07-23T06:36:31;12.75;;;9.90;;
27833;SDS011;15200;50.570;7.244;2022-07-23T06:38:58;13.90;;;10.18;;
27833;SDS011;15200;50.570;7.244;2022-07-23T06:41:26;13.13;;;10.45;;
27833;SDS011;15200;50.570;7.244;2022-07-23T06:43:53;14.35;;;10.18;;
27833;SDS011;15200;50.570;7.244;2022-07-23T06:46:20;14.93;;;9.85;;
27833;SDS011;15200;50.570;7.244;2022-07-23T06:48:49;16.70;;;10.60;;
27833;SDS011;15200;50.570;7.244;2022-07-23T06:51:16;18.25;;;10.38;;
27833;SDS011;15200;50.570;7.244;2022-07-23T06:53:43;14.43;;;10.43;;
27833;SDS011;15200;50.570;7.244;2022-07-23T06:56:10;13.08;;;9.63;;
27833;SDS011;15200;50.570;7.244;2022-07-23T06:58:38;13.68;;;10.03;;
27833;SDS011;15200;50.570;7.244;2022-07-23T07:01:05;14.03;;;10.35;;
27833;SDS011;15200;50.570;7.244;2022-07-23T07:03:32;15.25;;;9.93;;
27833;SDS011;15200;50.570;7.244;2022-07-23T07:06:00;13.93;;;9.78;;
27833;SDS011;15200;50.570;7.244;2022-07-23T07:08:28;14.93;;;10.75;;
27833;SDS011;15200;50.570;7.244;2022-07-23T07:10:55;16.32;;;10.72;;
27833;SDS011;15200;50.570;7.244;2022-07-23T07:13:23;14.15;;;9.68;;
27833;SDS011;15200;50.570;7.244;2022-07-23T07:15:50;15.00;;;9.98;;
27833;SDS011;15200;50.570;7.244;2022-07-23T07:18:17;12.80;;;9.93;;
27833;SDS011;15200;50.570;7.244;2022-07-23T07:20:45;14.10;;;10.05;;
27833;SDS011;15200;50.570;7.244;2022-07-23T07:23:12;14.40;;;8.60;;
27833;SDS011;15200;50.570;7.244;2022-07-23T07:25:39;11.48;;;9.43;;
27833;SDS011;15200;50.570;7.244;2022-07-23T07:28:07;12.75;;;9.88;;
27833;SDS011;15200;50.570;7.244;2022-07-23T07:30:34;12.70;;;8.85;;
27833;SDS011;15200;50.570;7.244;2022-07-23T07:33:01;14.93;;;9.20;;
27833;SDS011;15200;50.570;7.244;2022-07-23T07:35:29;11.25;;;8.43;;
27833;SDS011;15200;50.570;7.244;2022-07-23T07:37:58;16.48;;;7.70;;
27833;SDS011;15200;50.570;7.244;2022-07-23T07:40:26;12.20;;;8.30;;
27833;SDS011;15200;50.570;7.244;2022-07-23T07:42:53;10.68;;;7.40;;
27833;SDS011;15200;50.570;7.244;2022-07-23T07:45:23;11.22;;;6.92;;
27833;SDS011;15200;50.570;7.244;2022-07-23T07:47:51;10.03;;;6.40;;
27833;SDS011;15200;50.570;7.244;2022-07-23T07:50:19;10.30;;;7.37;;
27833;SDS011;15200;50.570;7.244;2022-07-23T07:52:47;9.43;;;6.12;;
27833;SDS011;15200;50.570;7.244;2022-07-23T07:55:14;9.38;;;5.97;;
27833;SDS011;15200;50.570;7.244;2022-07-23T07:57:41;9.45;;;6.08;;
27833;SDS011;15200;50.570;7.244;2022-07-23T08:00:09;9.40;;;6.55;;
27833;SDS011;15200;50.570;7.244;2022-07-23T08:02:44;8.40;;;5.28;;
27833;SDS011;15200;50.570;7.244;2022-07-23T08:05:11;7.42;;;5.53;;
27833;SDS011;15200;50.570;7.244;2022-07-23T08:07:39;6.17;;;5.22;;
27833;SDS011;15200;50.570;7.244;2022-07-23T08:10:07;8.63;;;4.45;;
27833;SDS011;15200;50.570;7.244;2022-07-23T08:12:39;7.28;;;5.00;;
27833;SDS011;15200;50.570;7.244;2022-07-23T08:15:07;6.55;;;4.33;;
27833;SDS011;15200;50.570;7.244;2022-07-23T08:17:35;6.72;;;5.25;;
27833;SDS011;15200;50.570;7.244;2022-07-23T08:20:03;7.28;;;4.90;;
27833;SDS011;15200;50.570;7.244;2022-07-23T08:25:16;6.20;;;3.67;;
27833;SDS011;15200;50.570;7.244;2022-07-23T08:27:44;9.48;;;5.10;;
27833;SDS011;15200;50.570;7.244;2022-07-23T08:30:12;6.75;;;4.78;;
27833;SDS011;15200;50.570;7.244;2022-07-23T08:32:49;6.33;;;4.60;;
27833;SDS011;15200;50.570;7.244;2022-07-23T08:35:17;5.97;;;4.62;;
27833;SDS011;15200;50.570;7.244;2022-07-23T08:37:44;7.08;;;4.30;;
27833;SDS011;15200;50.570;7.244;2022-07-23T08:40:11;8.43;;;5.08;;
27833;SDS011;15200;50.570;7.244;2022-07-23T08:42:39;7.85;;;5.05;;
27833;SDS011;15200;50.570;7.244;2022-07-23T08:45:07;7.35;;;5.40;;
27833;SDS011;15200;50.570;7.244;2022-07-23T08:47:36;7.30;;;4.80;;
27833;SDS011;15200;50.570;7.244;2022-07-23T08:50:04;6.20;;;4.95;;
27833;SDS011;15200;50.570;7.244;2022-07-23T08:52:33;6.22;;;3.83;;
27833;SDS011;15200;50.570;7.244;2022-07-23T08:55:01;4.30;;;3.87;;
27833;SDS011;15200;50.570;7.244;2022-07-23T08:57:28;6.80;;;4.53;;
27833;SDS011;15200;50.570;7.244;2022-07-23T08:59:56;5.65;;;3.83;;
27833;SDS011;15200;50.570;7.244;2022-07-23T09:02:23;7.47;;;4.25;;
27833;SDS011;15200;50.570;7.244;2022-07-23T09:04:50;6.78;;;3.27;;
27833;SDS011;15200;50.570;7.244;2022-07-23T09:07:18;3.67;;;2.98;;
27833;SDS011;15200;50.570;7.244;2022-07-23T09:09:45;8.73;;;3.52;;
27833;SDS011;15200;50.570;7.244;2022-07-23T09:12:12;4.83;;;3.72;;
27833;SDS011;15200;50.570;7.244;2022-07-23T09:14:41;6.65;;;2.90;;
27833;SDS011;15200;50.570;7.244;2022-07-23T09:17:14;5.20;;;3.62;;
27833;SDS011;15200;50.570;7.244;2022-07-23T09:19:38;4.95;;;3.37;;
27833;SDS011;15200;50.570;7.244;2022-07-23T09:22:21;6.70;;;4.03;;
27833;SDS011;15200;50.570;7.244;2022-07-23T09:25:05;6.12;;;3.52;;
27833;SDS011;15200;50.570;7.244;2022-07-23T09:30:23;5.30;;;3.40;;
27833;SDS011;15200;50.570;7.244;2022-07-23T09:33:10;4.45;;;3.22;;
27833;SDS011;15200;50.570;7.244;2022-07-23T09:35:47;5.95;;;3.62;;
27833;SDS011;15200;50.570;7.244;2022-07-23T09:38:15;19.50;;;4.62;;
27833;SDS011;15200;50.570;7.244;2022-07-23T09:40:43;4.12;;;3.35;;
27833;SDS011;15200;50.570;7.244;2022-07-23T09:43:12;9.25;;;4.20;;
27833;SDS011;15200;50.570;7.244;2022-07-23T09:45:39;7.25;;;3.75;;
27833;SDS011;15200;50.570;7.244;2022-07-23T09:48:15;5.58;;;3.70;;
27833;SDS011;15200;50.570;7.244;2022-07-23T09:50:39;6.03;;;3.67;;
27833;SDS011;15200;50.570;7.244;2022-07-23T09:53:06;4.53;;;3.50;;
27833;SDS011;15200;50.570;7.244;2022-07-23T09:55:34;5.17;;;2.90;;
27833;SDS011;15200;50.570;7.244;2022-07-23T09:58:05;5.70;;;3.40;;
27833;SDS011;15200;50.570;7.244;2022-07-23T10:00:37;6.33;;;3.42;;
27833;SDS011;15200;50.570;7.244;2022-07-23T10:03:05;5.45;;;3.37;;
27833;SDS011;15200;50.570;7.244;2022-07-23T10:05:33;3.95;;;3.27;;
27833;SDS011;15200;50.570;7.244;2022-07-23T10:08:02;5.50;;;2.80;;
27833;SDS011;15200;50.570;7.244;2022-07-23T10:10:29;4.33;;;3.27;;
27833;SDS011;15200;50.570;7.244;2022-07-23T10:12:57;6.97;;;3.30;;
27833;SDS011;15200;50.570;7.244;2022-07-23T10:15:32;9.63;;;4.30;;
27833;SDS011;15200;50.570;7.244;2022-07-23T10:17:59;8.05;;;4.30;;
27833;SDS011;15200;50.570;7.244;2022-07-23T10:20:26;6.58;;;3.42;;
27833;SDS011;15200;50.570;7.244;2022-07-23T10:22:58;4.08;;;3.02;;
27833;SDS011;15200;50.570;7.244;2022-07-23T10:25:25;7.33;;;3.62;;
27833;SDS011;15200;50.570;7.244;2022-07-23T10:27:56;4.30;;;2.75;;
27833;SDS011;15200;50.570;7.244;2022-07-23T10:32:58;5.00;;;3.47;;
27833;SDS011;15200;50.570;7.244;2022-07-23T10:38:18;3.45;;;2.45;;
27833;SDS011;15200;50.570;7.244;2022-07-23T10:41:00;2.85;;;2.40;;
27833;SDS011;15200;50.570;7.244;2022-07-23T10:43:23;2.40;;;2.10;;
27833;SDS011;15200;50.570;7.244;2022-07-23T10:45:51;2.70;;;2.15;;
27833;SDS011;15200;50.570;7.244;2022-07-23T10:48:25;2.95;;;2.62;;
27833;SDS011;15200;50.570;7.244;2022-07-23T10:51:07;3.15;;;2.35;;
27833;SDS011;15200;50.570;7.244;2022-07-23T10:56:16;4.60;;;3.25;;
27833;SDS011;15200;50.570;7.244;2022-07-23T10:58:47;3.52;;;3.22;;
27833;SDS011;15200;50.570;7.244;2022-07-23T11:04:00;2.50;;;1.87;;
27833;SDS011;15200;50.570;7.244;2022-07-23T11:09:26;4.65;;;2.47;;
27833;SDS011;15200;50.570;7.244;2022-07-23T11:17:23;3.22;;;1.90;;
27833;SDS011;15200;50.570;7.244;2022-07-23T11:25:29;4.03;;;2.17;;
27833;SDS011;15200;50.570;7.244;2022-07-23T11:27:42;4.00;;;2.22;;
27833;SDS011;15200;50.570;7.244;2022-07-23T11:30:10;2.75;;;1.95;;
27833;SDS011;15200;50.570;7.244;2022-07-23T11:32:39;3.00;;;2.20;;
27833;SDS011;15200;50.570;7.244;2022-07-23T11:35:24;2.98;;;2.20;;
27833;SDS011;15200;50.570;7.244;2022-07-23T11:37:52;2.50;;;2.27;;
27833;SDS011;15200;50.570;7.244;2022-07-23T11:40:22;4.35;;;2.80;;
27833;SDS011;15200;50.570;7.244;2022-07-23T11:42:54;5.53;;;2.50;;
27833;SDS011;15200;50.570;7.244;2022-07-23T11:45:18;2.92;;;2.55;;
27833;SDS011;15200;50.570;7.244;2022-07-23T11:47:45;4.33;;;2.45;;
27833;SDS011;15200;50.570;7.244;2022-07-23T11:50:13;3.12;;;2.40;;
27833;SDS011;15200;50.570;7.244;2022-07-23T11:52:40;3.75;;;2.50;;
27833;SDS011;15200;50.570;7.244;2022-07-23T11:55:09;5.72;;;2.33;;
27833;SDS011;15200;50.570;7.244;2022-07-23T11:57:39;4.62;;;2.60;;
27833;SDS011;15200;50.570;7.244;2022-07-23T12:00:08;3.35;;;2.50;;
27833;SDS011;15200;50.570;7.244;2022-07-23T12:02:40;2.35;;;2.12;;
27833;SDS011;15200;50.570;7.244;2022-07-23T12:05:10;2.95;;;2.35;;
27833;SDS011;15200;50.570;7.244;2022-07-23T12:07:37;4.33;;;2.52;;
27833;SDS011;15200;50.570;7.244;2022-07-23T12:10:13;4.20;;;2.40;;
27833;SDS011;15200;50.570;7.244;2022-07-23T12:12:44;2.98;;;2.55;;
27833;SDS011;15200;50.570;7.244;2022-07-23T12:15:12;4.92;;;2.62;;
27833;SDS011;15200;50.570;7.244;2022-07-23T12:17:40;4.78;;;2.60;;
27833;SDS011;15200;50.570;7.244;2022-07-23T12:20:08;3.72;;;2.77;;
27833;SDS011;15200;50.570;7.244;2022-07-23T12:22:37;4.95;;;3.22;;
27833;SDS011;15200;50.570;7.244;2022-07-23T12:25:06;4.08;;;3.02;;
27833;SDS011;15200;50.570;7.244;2022-07-23T12:27:34;4.53;;;2.92;;
27833;SDS011;15200;50.570;7.244;2022-07-23T12:30:19;4.97;;;2.85;;
27833;SDS011;15200;50.570;7.244;2022-07-23T12:32:44;5.92;;;2.40;;
27833;SDS011;15200;50.570;7.244;2022-07-23T12:35:11;3.25;;;2.80;;
27833;SDS011;15200;50.570;7.244;2022-07-23T12:37:40;3.25;;;2.60;;
27833;SDS011;15200;50.570;7.244;2022-07-23T12:42:57;7.72;;;3.50;;
27833;SDS011;15200;50.570;7.244;2022-07-23T12:45:26;4.60;;;3.00;;
27833;SDS011;15200;50.570;7.244;2022-07-23T12:48:01;4.37;;;2.85;;
27833;SDS011;15200;50.570;7.244;2022-07-23T12:50:40;3.25;;;2.67;;
27833;SDS011;15200;50.570;7.244;2022-07-23T12:53:09;4.72;;;2.70;;
27833;SDS011;15200;50.570;7.244;2022-07-23T12:55:36;4.10;;;3.12;;
27833;SDS011;15200;50.570;7.244;2022-07-23T12:58:08;3.47;;;3.17;;
27833;SDS011;15200;50.570;7.244;2022-07-23T13:00:50;4.20;;;3.30;;
27833;SDS011;15200;50.570;7.244;2022-07-23T13:03:24;3.08;;;2.75;;
27833;SDS011;15200;50.570;7.244;2022-07-23T13:05:52;4.95;;;3.30;;
27833;SDS011;15200;50.570;7.244;2022-07-23T13:08:20;5.33;;;3.15;;
27833;SDS011;15200;50.570;7.244;2022-07-23T13:10:47;3.95;;;3.40;;
27833;SDS011;15200;50.570;7.244;2022-07-23T13:13:15;3.27;;;2.75;;
27833;SDS011;15200;50.570;7.244;2022-07-23T13:15:42;3.22;;;2.92;;
27833;SDS011;15200;50.570;7.244;2022-07-23T13:18:10;3.17;;;2.87;;
27833;SDS011;15200;50.570;7.244;2022-07-23T13:20:37;5.70;;;3.45;;
27833;SDS011;15200;50.570;7.244;2022-07-23T13:23:06;5.17;;;3.22;;
27833;SDS011;15200;50.570;7.244;2022-07-23T13:25:33;3.52;;;3.15;;
27833;SDS011;15200;50.570;7.244;2022-07-23T13:28:00;5.30;;;3.27;;
27833;SDS011;15200;50.570;7.244;2022-07-23T13:30:28;2.92;;;2.60;;
27833;SDS011;15200;50.570;7.244;2022-07-23T13:32:55;3.75;;;2.95;;
27833;SDS011;15200;50.570;7.244;2022-07-23T13:35:22;5.40;;;3.12;;
27833;SDS011;15200;50.570;7.244;2022-07-23T13:37:50;3.02;;;2.70;;
27833;SDS011;15200;50.570;7.244;2022-07-23T13:40:17;4.92;;;3.42;;
27833;SDS011;15200;50.570;7.244;2022-07-23T13:42:45;5.05;;;3.42;;
27833;SDS011;15200;50.570;7.244;2022-07-23T13:45:12;4.20;;;3.20;;
27833;SDS011;15200;50.570;7.244;2022-07-23T13:47:39;3.25;;;2.95;;
27833;SDS011;15200;50.570;7.244;2022-07-23T13:50:07;8.38;;;3.55;;
27833;SDS011;15200;50.570;7.244;2022-07-23T13:52:34;6.47;;;3.52;;
27833;SDS011;15200;50.570;7.244;2022-07-23T13:55:02;9.25;;;3.65;;
27833;SDS011;15200;50.570;7.244;2022-07-23T13:57:31;6.55;;;3.00;;
27833;SDS011;15200;50.570;7.244;2022-07-23T13:59:58;5.65;;;4.00;;
27833;SDS011;15200;50.570;7.244;2022-07-23T14:02:25;5.83;;;3.47;;
27833;SDS011;15200;50.570;7.244;2022-07-23T14:04:52;4.87;;;3.50;;
27833;SDS011;15200;50.570;7.244;2022-07-23T14:07:20;5.25;;;3.40;;
27833;SDS011;15200;50.570;7.244;2022-07-23T14:09:47;6.25;;;3.83;;
27833;SDS011;15200;50.570;7.244;2022-07-23T14:12:15;5.17;;;3.50;;
27833;SDS011;15200;50.570;7.244;2022-07-23T14:14:42;5.67;;;3.90;;
27833;SDS011;15200;50.570;7.244;2022-07-23T14:17:10;4.58;;;3.30;;
27833;SDS011;15200;50.570;7.244;2022-07-23T14:19:37;3.65;;;3.35;;
27833;SDS011;15200;50.570;7.244;2022-07-23T14:22:04;3.92;;;3.20;;
27833;SDS011;15200;50.570;7.244;2022-07-23T14:24:32;7.40;;;3.40;;
27833;SDS011;15200;50.570;7.244;2022-07-23T14:27:00;4.05;;;3.65;;
27833;SDS011;15200;50.570;7.244;2022-07-23T14:29:28;4.03;;;3.37;;
27833;SDS011;15200;50.570;7.244;2022-07-23T14:31:56;5.40;;;3.33;;
27833;SDS011;15200;50.570;7.244;2022-07-23T14:34:24;6.30;;;3.67;;
27833;SDS011;15200;50.570;7.244;2022-07-23T14:36:51;5.33;;;3.45;;
27833;SDS011;15200;50.570;7.244;2022-07-23T14:39:19;5.58;;;3.50;;
27833;SDS011;15200;50.570;7.244;2022-07-23T14:41:46;6.22;;;3.30;;
27833;SDS011;15200;50.570;7.244;2022-07-23T14:44:13;5.12;;;3.60;;
27833;SDS011;15200;50.570;7.244;2022-07-23T14:46:41;3.98;;;3.33;;
27833;SDS011;15200;50.570;7.244;2022-07-23T14:49:08;6.92;;;3.85;;
27833;SDS011;15200;50.570;7.244;2022-07-23T14:51:36;6.95;;;3.50;;
27833;SDS011;15200;50.570;7.244;2022-07-23T14:54:03;3.50;;;3.20;;
27833;SDS011;15200;50.570;7.244;2022-07-23T14:56:31;4.12;;;3.58;;
27833;SDS011;15200;50.570;7.244;2022-07-23T14:58:59;5.03;;;3.50;;
27833;SDS011;15200;50.570;7.244;2022-07-23T15:01:27;4.87;;;3.98;;
27833;SDS011;15200;50.570;7.244;2022-07-23T15:03:54;5.12;;;3.92;;
27833;SDS011;15200;50.570;7.244;2022-07-23T15:06:21;4.33;;;3.35;;
27833;SDS011;15200;50.570;7.244;2022-07-23T15:08:49;5.67;;;4.22;;
27833;SDS011;15200;50.570;7.244;2022-07-23T15:11:16;6.87;;;3.65;;
27833;SDS011;15200;50.570;7.244;2022-07-23T15:13:44;5.30;;;3.27;;